Desert Spring — V7XQ8 — position and weather

sailwx.info

Track history (hours):
 
Tides and Currents Weather Stations Pressure Air Temp Water Temp Dewpoint Dewpoint Depression Visibility Wind Speed Wind Dir Waves Ship Positions

Desert Spring

Last reported at 2015-Aug-16 17:33 UTC. Time now 2015-Sep-01 03:56 UTC.
Position S 23°60' W 045°10'.
Warning: this ship's position is 15 days out of date.

Length 193 m; draft 10.9 m.

Type: Cargo ship. MMSI: 538004547.

Date/timePositionNaut miles runAvg speedWind from/ knotsBaromVisibWave heightAir tempDewpointWater temp
2015-Aug-16 17:33S 23°60' W 045°10'1111.2
2015-Aug-16 16:33S 24°00' W 045°22'1111.1
2015-Aug-16 15:33S 23°60' W 045°34'1110.9
2015-Aug-16 14:33S 24°00' W 045°46'1111.1
2015-Aug-16 13:33S 24°02' W 045°58'1111.2
2015-Aug-16 12:33S 24°03' W 046°10'10 9.7
2015-Aug-16 11:33S 24°01' W 046°20'4 0.9
2015-Aug-16 07:09S 23°57' W 046°19'2 0.1
2015-Aug-15 15:33S 23°58' W 046°18'6 6.0
2015-Aug-15 14:33S 24°04' W 046°20'0 0.2
2015-Aug-15 13:33S 24°04' W 046°20'0 0.0
2015-Aug-15 12:33S 24°04' W 046°20'0 0.0
2015-Aug-15 11:33S 24°04' W 046°20'0 0.0
2015-Aug-15 10:33S 24°04' W 046°20'0 0.0
2015-Aug-15 09:30S 24°04' W 046°20'0 0.0
2015-Aug-15 08:27S 24°04' W 046°20'0 0.0
2015-Aug-15 07:27S 24°04' W 046°20'0 0.0
2015-Aug-15 06:27S 24°04' W 046°20'0 0.1
2015-Aug-15 05:33S 24°04' W 046°20'0 0.0
2015-Aug-15 04:30S 24°04' W 046°20'0 0.0
2015-Aug-15 03:27S 24°04' W 046°20'0 0.0
2015-Aug-15 02:33S 24°04' W 046°20'0 0.0
2015-Aug-15 01:27S 24°04' W 046°20'0 0.0
2015-Aug-15 00:33S 24°04' W 046°20'0 0.0
2015-Aug-14 23:33S 24°04' W 046°20'0 0.0
2015-Aug-14 22:27S 24°04' W 046°20'0 0.0
2015-Aug-14 21:33S 24°04' W 046°20'0 0.0
2015-Aug-14 20:33S 24°04' W 046°20'0 0.0
2015-Aug-14 19:33S 24°04' W 046°20'0 0.0
2015-Aug-14 18:30S 24°04' W 046°20'0 0.0
2015-Aug-14 17:33S 24°04' W 046°20'0 0.0
2015-Aug-14 16:30S 24°04' W 046°20'0 0.0
2015-Aug-14 15:33S 24°04' W 046°20'0 0.0
2015-Aug-14 14:33S 24°04' W 046°20'0 0.0
2015-Aug-14 13:33S 24°04' W 046°20'0 0.0
2015-Aug-14 12:33S 24°04' W 046°20'0 0.0
2015-Aug-14 11:24S 24°04' W 046°20'0 0.0
2015-Aug-14 10:33S 24°04' W 046°20'0 0.0
2015-Aug-14 09:30S 24°04' W 046°20'0 0.1
2015-Aug-14 08:33S 24°04' W 046°20'0 0.1
2015-Aug-14 07:33S 24°04' W 046°20'0 0.0
2015-Aug-14 06:30S 24°04' W 046°20'0 0.1
2015-Aug-14 05:33S 24°04' W 046°20'0 0.0
2015-Aug-14 04:30S 24°04' W 046°20'0 0.0
2015-Aug-14 03:33S 24°04' W 046°20'0 0.0
2015-Aug-14 02:33S 24°04' W 046°20'0 0.0
2015-Aug-14 01:33S 24°04' W 046°20'0 0.5
2015-Aug-14 00:33S 24°03' W 046°21'10 9.9
2015-Aug-13 23:33S 24°13' W 046°25'1211.7
2015-Aug-13 22:34S 24°24' W 046°28'1212.5
2015-Aug-13 21:34S 24°36' W 046°31'9 8.8
2015-Aug-13 20:34S 24°44' W 046°34'1111.2
2015-Aug-13 19:33S 24°55' W 046°37'1611.1
2015-Aug-13 18:09S 25°10' W 046°42'3910.9
2015-Aug-13 14:33S 25°48' W 046°53'  
2015-Aug-10 07:28S 34°44' W 057°41'1011.1
2015-Aug-10 06:32S 34°42' W 057°54'1211.9
2015-Aug-10 05:33S 34°38' W 058°07'  
Track history (hours):
 
Tides and Currents Weather Stations Pressure Air Temp Water Temp Dewpoint Dewpoint Depression Visibility Wind Speed Wind Dir Waves Ship Positions

Desert Spring

Last reported at 2015-Aug-16 17:33 UTC. Time now 2015-Sep-01 03:56 UTC.
Position S 23°60' W 045°10'.
Warning: this ship's position is 15 days out of date.

Length 193 m; draft 10.9 m.

Type: Cargo ship. MMSI: 538004547.

Date/timePositionNaut miles runAvg speedWind from/ knotsBaromVisibWave heightAir tempDewpointWater temp
2015-Aug-16 17:33S 23°60' W 045°10'1111.2
2015-Aug-16 16:33S 24°00' W 045°22'1111.1
2015-Aug-16 15:33S 23°60' W 045°34'1110.9
2015-Aug-16 14:33S 24°00' W 045°46'1111.1
2015-Aug-16 13:33S 24°02' W 045°58'1111.2
2015-Aug-16 12:33S 24°03' W 046°10'10 9.7
2015-Aug-16 11:33S 24°01' W 046°20'4 0.9
2015-Aug-16 07:09S 23°57' W 046°19'2 0.1
2015-Aug-15 15:33S 23°58' W 046°18'6 6.0
2015-Aug-15 14:33S 24°04' W 046°20'0 0.2
2015-Aug-15 13:33S 24°04' W 046°20'0 0.0
2015-Aug-15 12:33S 24°04' W 046°20'0 0.0
2015-Aug-15 11:33S 24°04' W 046°20'0 0.0
2015-Aug-15 10:33S 24°04' W 046°20'0 0.0
2015-Aug-15 09:30S 24°04' W 046°20'0 0.0
2015-Aug-15 08:27S 24°04' W 046°20'0 0.0
2015-Aug-15 07:27S 24°04' W 046°20'0 0.0
2015-Aug-15 06:27S 24°04' W 046°20'0 0.1
2015-Aug-15 05:33S 24°04' W 046°20'0 0.0
2015-Aug-15 04:30S 24°04' W 046°20'0 0.0
2015-Aug-15 03:27S 24°04' W 046°20'0 0.0
2015-Aug-15 02:33S 24°04' W 046°20'0 0.0
2015-Aug-15 01:27S 24°04' W 046°20'0 0.0
2015-Aug-15 00:33S 24°04' W 046°20'0 0.0
2015-Aug-14 23:33S 24°04' W 046°20'0 0.0
2015-Aug-14 22:27S 24°04' W 046°20'0 0.0
2015-Aug-14 21:33S 24°04' W 046°20'0 0.0
2015-Aug-14 20:33S 24°04' W 046°20'0 0.0
2015-Aug-14 19:33S 24°04' W 046°20'0 0.0
2015-Aug-14 18:30S 24°04' W 046°20'0 0.0
2015-Aug-14 17:33S 24°04' W 046°20'0 0.0
2015-Aug-14 16:30S 24°04' W 046°20'0 0.0
2015-Aug-14 15:33S 24°04' W 046°20'0 0.0
2015-Aug-14 14:33S 24°04' W 046°20'0 0.0
2015-Aug-14 13:33S 24°04' W 046°20'0 0.0
2015-Aug-14 12:33S 24°04' W 046°20'0 0.0
2015-Aug-14 11:24S 24°04' W 046°20'0 0.0
2015-Aug-14 10:33S 24°04' W 046°20'0 0.0
2015-Aug-14 09:30S 24°04' W 046°20'0 0.1
2015-Aug-14 08:33S 24°04' W 046°20'0 0.1
2015-Aug-14 07:33S 24°04' W 046°20'0 0.0
2015-Aug-14 06:30S 24°04' W 046°20'0 0.1
2015-Aug-14 05:33S 24°04' W 046°20'0 0.0
2015-Aug-14 04:30S 24°04' W 046°20'0 0.0
2015-Aug-14 03:33S 24°04' W 046°20'0 0.0
2015-Aug-14 02:33S 24°04' W 046°20'0 0.0
2015-Aug-14 01:33S 24°04' W 046°20'0 0.5
2015-Aug-14 00:33S 24°03' W 046°21'10 9.9
2015-Aug-13 23:33S 24°13' W 046°25'1211.7
2015-Aug-13 22:34S 24°24' W 046°28'1212.5
2015-Aug-13 21:34S 24°36' W 046°31'9 8.8
2015-Aug-13 20:34S 24°44' W 046°34'1111.2
2015-Aug-13 19:33S 24°55' W 046°37'1611.1
2015-Aug-13 18:09S 25°10' W 046°42'3910.9
2015-Aug-13 14:33S 25°48' W 046°53'  
2015-Aug-10 07:28S 34°44' W 057°41'1011.1
2015-Aug-10 06:32S 34°42' W 057°54'1211.9
2015-Aug-10 05:33S 34°38' W 058°07'  

Dump ship's entire track history